sensor_id;sensor_type;location;lat;lon;timestamp;pressure;altitude;pressure_sealevel;temperature;humidity
69780;BME280;57052;55.602;38.096;2023-05-09T00:02:06;101927.78;;;5.42;55.55
69780;BME280;57052;55.602;38.096;2023-05-09T00:04:32;101917.16;;;5.34;55.79
69780;BME280;57052;55.602;38.096;2023-05-09T00:06:58;101916.53;;;5.32;55.52
69780;BME280;57052;55.602;38.096;2023-05-09T00:09:24;101927.75;;;5.36;55.54
69780;BME280;57052;55.602;38.096;2023-05-09T00:11:50;101930.41;;;5.36;56.07
69780;BME280;57052;55.602;38.096;2023-05-09T00:14:15;101929.75;;;5.34;55.78
69780;BME280;57052;55.602;38.096;2023-05-09T00:16:43;101929.13;;;5.32;56.23
69780;BME280;57052;55.602;38.096;2023-05-09T00:19:09;101928.69;;;5.28;56.02
69780;BME280;57052;55.602;38.096;2023-05-09T00:21:35;101933.22;;;5.28;56.43
69780;BME280;57052;55.602;38.096;2023-05-09T00:24:01;101927.25;;;5.26;56.29
69780;BME280;57052;55.602;38.096;2023-05-09T00:26:26;101932.16;;;5.22;56.21
69780;BME280;57052;55.602;38.096;2023-05-09T00:28:52;101933.16;;;5.21;56.17
69780;BME280;57052;55.602;38.096;2023-05-09T00:31:19;101927.94;;;5.13;56.60
69780;BME280;57052;55.602;38.096;2023-05-09T00:33:45;101924.03;;;5.15;56.43
69780;BME280;57052;55.602;38.096;2023-05-09T00:36:10;101928.97;;;5.12;56.96
69780;BME280;57052;55.602;38.096;2023-05-09T00:38:36;101928.13;;;5.11;56.84
69780;BME280;57052;55.602;38.096;2023-05-09T00:41:02;101926.66;;;5.09;56.52
69780;BME280;57052;55.602;38.096;2023-05-09T00:43:29;101927.88;;;5.06;57.19
69780;BME280;57052;55.602;38.096;2023-05-09T00:45:54;101922.91;;;5.03;56.89
69780;BME280;57052;55.602;38.096;2023-05-09T00:48:20;101911.25;;;4.96;56.49
69780;BME280;57052;55.602;38.096;2023-05-09T00:50:46;101914.97;;;4.95;57.10
69780;BME280;57052;55.602;38.096;2023-05-09T00:53:18;101929.03;;;4.97;56.88
69780;BME280;57052;55.602;38.096;2023-05-09T00:55:45;101914.09;;;4.88;57.27
69780;BME280;57052;55.602;38.096;2023-05-09T00:58:11;101940.97;;;4.95;57.28
69780;BME280;57052;55.602;38.096;2023-05-09T01:00:36;101936.81;;;4.92;57.34
69780;BME280;57052;55.602;38.096;2023-05-09T01:03:02;101920.84;;;4.84;57.52
69780;BME280;57052;55.602;38.096;2023-05-09T01:05:56;101938.97;;;4.82;59.79
69780;BME280;57052;55.602;38.096;2023-05-09T01:08:50;101931.31;;;4.79;59.56
69780;BME280;57052;55.602;38.096;2023-05-09T01:14:11;101934.19;;;4.78;58.09
69780;BME280;57052;55.602;38.096;2023-05-09T01:16:41;101924.41;;;4.70;57.95
69780;BME280;57052;55.602;38.096;2023-05-09T01:19:32;101930.03;;;4.75;58.91
69780;BME280;57052;55.602;38.096;2023-05-09T01:22:04;101912.94;;;4.62;57.92
69780;BME280;57052;55.602;38.096;2023-05-09T01:30:11;101928.22;;;4.61;57.50
69780;BME280;57052;55.602;38.096;2023-05-09T01:32:39;101928.22;;;4.61;57.75
69780;BME280;57052;55.602;38.096;2023-05-09T01:35:10;101915.19;;;4.58;57.62
69780;BME280;57052;55.602;38.096;2023-05-09T01:37:40;101930.25;;;4.59;58.03
69780;BME280;57052;55.602;38.096;2023-05-09T01:40:10;101926.72;;;4.59;57.86
69780;BME280;57052;55.602;38.096;2023-05-09T01:42:54;101928.97;;;4.55;60.43
69780;BME280;57052;55.602;38.096;2023-05-09T01:45:22;101926.47;;;4.53;58.52
69780;BME280;57052;55.602;38.096;2023-05-09T01:47:49;101913.38;;;4.44;58.27
69780;BME280;57052;55.602;38.096;2023-05-09T01:50:17;101933.97;;;4.58;58.47
69780;BME280;57052;55.602;38.096;2023-05-09T01:52:46;101923.16;;;4.51;58.29
69780;BME280;57052;55.602;38.096;2023-05-09T01:55:16;101917.53;;;4.46;57.58
69780;BME280;57052;55.602;38.096;2023-05-09T01:57:42;101932.31;;;4.57;57.90
69780;BME280;57052;55.602;38.096;2023-05-09T02:00:10;101943.03;;;4.57;58.05
69780;BME280;57052;55.602;38.096;2023-05-09T02:02:37;101932.50;;;4.56;58.48
69780;BME280;57052;55.602;38.096;2023-05-09T02:05:05;101936.81;;;4.57;57.79
69780;BME280;57052;55.602;38.096;2023-05-09T02:07:32;101941.34;;;4.56;58.13
69780;BME280;57052;55.602;38.096;2023-05-09T02:09:59;101934.72;;;4.52;58.67
69780;BME280;57052;55.602;38.096;2023-05-09T02:12:27;101942.38;;;4.55;58.54
69780;BME280;57052;55.602;38.096;2023-05-09T02:14:52;101936.38;;;4.53;58.47
69780;BME280;57052;55.602;38.096;2023-05-09T02:17:18;101928.50;;;4.51;58.08
69780;BME280;57052;55.602;38.096;2023-05-09T02:19:46;101935.19;;;4.56;58.28
69780;BME280;57052;55.602;38.096;2023-05-09T02:22:31;101935.81;;;4.58;58.11
69780;BME280;57052;55.602;38.096;2023-05-09T02:24:57;101935.72;;;4.51;58.23
69780;BME280;57052;55.602;38.096;2023-05-09T02:27:23;101932.03;;;4.52;58.76
69780;BME280;57052;55.602;38.096;2023-05-09T02:29:50;101941.81;;;4.60;58.41
69780;BME280;57052;55.602;38.096;2023-05-09T02:32:25;101942.66;;;4.60;60.05
69780;BME280;57052;55.602;38.096;2023-05-09T02:34:53;101942.66;;;4.60;59.24
69780;BME280;57052;55.602;38.096;2023-05-09T02:37:20;101937.72;;;4.64;58.55
69780;BME280;57052;55.602;38.096;2023-05-09T02:39:46;101941.88;;;4.66;58.53
69780;BME280;57052;55.602;38.096;2023-05-09T02:42:16;101939.88;;;4.68;59.54
69780;BME280;57052;55.602;38.096;2023-05-09T02:44:42;101944.03;;;4.71;58.58
69780;BME280;57052;55.602;38.096;2023-05-09T02:47:07;101950.03;;;4.73;58.78
69780;BME280;57052;55.602;38.096;2023-05-09T02:49:33;101945.09;;;4.76;58.64
69780;BME280;57052;55.602;38.096;2023-05-09T02:51:59;101945.56;;;4.80;59.32
69780;BME280;57052;55.602;38.096;2023-05-09T02:54:25;101946.03;;;4.83;59.35
69780;BME280;57052;55.602;38.096;2023-05-09T02:56:51;101951.81;;;4.87;59.31
69780;BME280;57052;55.602;38.096;2023-05-09T02:59:17;101952.91;;;4.92;59.15
69780;BME280;57052;55.602;38.096;2023-05-09T03:01:43;101946.72;;;4.92;59.07
69780;BME280;57052;55.602;38.096;2023-05-09T03:04:09;101949.06;;;5.01;59.05
69780;BME280;57052;55.602;38.096;2023-05-09T03:06:35;101952.84;;;5.07;58.55
69780;BME280;57052;55.602;38.096;2023-05-09T03:09:00;101948.59;;;5.12;58.28
69780;BME280;57052;55.602;38.096;2023-05-09T03:11:26;101948.00;;;5.17;58.66
69780;BME280;57052;55.602;38.096;2023-05-09T03:13:52;101944.72;;;5.22;58.26
69780;BME280;57052;55.602;38.096;2023-05-09T03:16:18;101949.97;;;5.30;58.69
69780;BME280;57052;55.602;38.096;2023-05-09T03:18:44;101946.66;;;5.28;58.82
69780;BME280;57052;55.602;38.096;2023-05-09T03:21:10;101956.22;;;5.37;58.36
69780;BME280;57052;55.602;38.096;2023-05-09T03:23:35;101962.06;;;5.40;57.85
69780;BME280;57052;55.602;38.096;2023-05-09T03:26:01;101972.00;;;5.46;57.97
69780;BME280;57052;55.602;38.096;2023-05-09T03:28:27;101970.78;;;5.49;58.00
69780;BME280;57052;55.602;38.096;2023-05-09T03:30:53;101970.03;;;5.55;57.91
69780;BME280;57052;55.602;38.096;2023-05-09T03:33:19;101972.50;;;5.56;58.06
69780;BME280;57052;55.602;38.096;2023-05-09T03:35:45;101971.34;;;5.65;58.02
69780;BME280;57052;55.602;38.096;2023-05-09T03:38:11;101963.72;;;5.69;58.06
69780;BME280;57052;55.602;38.096;2023-05-09T03:40:36;101976.19;;;5.76;57.93
69780;BME280;57052;55.602;38.096;2023-05-09T03:43:02;101961.28;;;5.74;57.74
69780;BME280;57052;55.602;38.096;2023-05-09T03:45:27;101973.00;;;5.88;57.18
69780;BME280;57052;55.602;38.096;2023-05-09T03:47:53;101968.50;;;5.95;57.29
69780;BME280;57052;55.602;38.096;2023-05-09T03:50:19;101913.09;;;5.66;57.04
69780;BME280;57052;55.602;38.096;2023-05-09T03:52:45;101972.09;;;6.08;56.62
69780;BME280;57052;55.602;38.096;2023-05-09T03:55:10;101968.81;;;6.13;56.44
69780;BME280;57052;55.602;38.096;2023-05-09T03:57:36;101965.31;;;6.19;56.25
69780;BME280;57052;55.602;38.096;2023-05-09T04:00:03;101975.31;;;6.31;56.08
69780;BME280;57052;55.602;38.096;2023-05-09T04:02:33;101968.78;;;6.40;55.64
69780;BME280;57052;55.602;38.096;2023-05-09T04:04:59;101976.69;;;6.49;55.46
69780;BME280;57052;55.602;38.096;2023-05-09T04:07:25;101972.78;;;6.58;55.02
69780;BME280;57052;55.602;38.096;2023-05-09T04:09:54;101970.53;;;6.61;54.21
69780;BME280;57052;55.602;38.096;2023-05-09T04:12:20;101974.69;;;6.77;54.42
69780;BME280;57052;55.602;38.096;2023-05-09T04:14:46;101966.22;;;6.80;53.81
69780;BME280;57052;55.602;38.096;2023-05-09T04:17:12;101973.72;;;6.91;53.65
69780;BME280;57052;55.602;38.096;2023-05-09T04:19:37;101972.50;;;7.00;52.82
69780;BME280;57052;55.602;38.096;2023-05-09T04:22:03;101982.91;;;7.16;52.29
69780;BME280;57052;55.602;38.096;2023-05-09T04:24:29;101986.03;;;7.26;52.63
69780;BME280;57052;55.602;38.096;2023-05-09T04:26:54;101964.03;;;7.29;51.11
69780;BME280;57052;55.602;38.096;2023-05-09T04:29:20;101964.28;;;7.41;51.29
69780;BME280;57052;55.602;38.096;2023-05-09T04:31:46;101974.22;;;7.53;50.59
69780;BME280;57052;55.602;38.096;2023-05-09T04:34:11;101963.66;;;7.65;50.93
69780;BME280;57052;55.602;38.096;2023-05-09T04:36:37;101973.22;;;7.74;50.18
69780;BME280;57052;55.602;38.096;2023-05-09T04:39:03;101966.97;;;7.80;49.52
69780;BME280;57052;55.602;38.096;2023-05-09T04:41:29;101977.50;;;7.95;49.89
69780;BME280;57052;55.602;38.096;2023-05-09T04:43:55;101962.59;;;7.99;49.06
69780;BME280;57052;55.602;38.096;2023-05-09T04:46:21;101959.66;;;8.07;48.86
69780;BME280;57052;55.602;38.096;2023-05-09T04:48:46;101973.72;;;8.22;48.70
69780;BME280;57052;55.602;38.096;2023-05-09T04:51:12;101979.13;;;8.35;48.07
69780;BME280;57052;55.602;38.096;2023-05-09T04:53:37;101977.88;;;8.44;47.73
69780;BME280;57052;55.602;38.096;2023-05-09T04:56:03;101979.28;;;8.53;47.11
69780;BME280;57052;55.602;38.096;2023-05-09T04:58:29;101969.69;;;8.57;47.42
69780;BME280;57052;55.602;38.096;2023-05-09T05:00:55;101974.81;;;8.72;47.04
69780;BME280;57052;55.602;38.096;2023-05-09T05:03:21;101978.13;;;8.80;46.45
69780;BME280;57052;55.602;38.096;2023-05-09T05:05:46;101968.75;;;8.83;46.04
69780;BME280;57052;55.602;38.096;2023-05-09T05:08:12;101979.09;;;8.92;46.39
69780;BME280;57052;55.602;38.096;2023-05-09T05:10:38;101980.69;;;9.07;45.50
69780;BME280;57052;55.602;38.096;2023-05-09T05:13:03;101981.25;;;9.15;45.23
69780;BME280;57052;55.602;38.096;2023-05-09T05:15:29;101959.88;;;9.14;44.89
69780;BME280;57052;55.602;38.096;2023-05-09T05:17:55;101977.19;;;9.31;44.59
69780;BME280;57052;55.602;38.096;2023-05-09T05:20:20;101972.38;;;9.39;45.10
69780;BME280;57052;55.602;38.096;2023-05-09T05:22:46;101969.97;;;9.49;44.18
69780;BME280;57052;55.602;38.096;2023-05-09T05:25:12;101970.97;;;9.55;43.97
69780;BME280;57052;55.602;38.096;2023-05-09T05:27:37;101965.97;;;9.58;43.91
69780;BME280;57052;55.602;38.096;2023-05-09T05:30:04;101944.94;;;9.60;44.28
69780;BME280;57052;55.602;38.096;2023-05-09T05:32:30;101965.19;;;9.76;43.80
69780;BME280;57052;55.602;38.096;2023-05-09T05:34:56;101972.34;;;9.89;43.18
69780;BME280;57052;55.602;38.096;2023-05-09T05:37:22;101970.41;;;9.96;42.74
69780;BME280;57052;55.602;38.096;2023-05-09T05:39:47;101958.47;;;10.03;42.76
69780;BME280;57052;55.602;38.096;2023-05-09T05:42:13;101965.72;;;10.09;42.24
69780;BME280;57052;55.602;38.096;2023-05-09T05:44:39;101961.09;;;10.16;42.45
69780;BME280;57052;55.602;38.096;2023-05-09T05:47:04;101954.75;;;10.22;42.02
69780;BME280;57052;55.602;38.096;2023-05-09T05:49:30;101962.59;;;10.30;42.02
69780;BME280;57052;55.602;38.096;2023-05-09T05:51:56;101957.31;;;10.36;41.54
69780;BME280;57052;55.602;38.096;2023-05-09T05:54:21;101956.44;;;10.42;41.41
69780;BME280;57052;55.602;38.096;2023-05-09T05:56:47;101955.06;;;10.51;41.47
69780;BME280;57052;55.602;38.096;2023-05-09T05:59:13;101956.38;;;10.60;41.18
69780;BME280;57052;55.602;38.096;2023-05-09T06:01:38;101955.88;;;10.69;40.42
69780;BME280;57052;55.602;38.096;2023-05-09T06:04:04;101945.53;;;10.78;40.39
69780;BME280;57052;55.602;38.096;2023-05-09T06:06:30;101941.69;;;10.85;40.11
69780;BME280;57052;55.602;38.096;2023-05-09T06:08:56;101951.97;;;10.95;39.71
69780;BME280;57052;55.602;38.096;2023-05-09T06:11:22;101946.22;;;11.03;39.27
69780;BME280;57052;55.602;38.096;2023-05-09T06:13:48;101938.94;;;11.04;38.70
69780;BME280;57052;55.602;38.096;2023-05-09T06:16:13;101944.16;;;11.17;38.42
69780;BME280;57052;55.602;38.096;2023-05-09T06:18:39;101938.03;;;11.21;38.50
69780;BME280;57052;55.602;38.096;2023-05-09T06:21:06;101937.00;;;11.34;38.27
69780;BME280;57052;55.602;38.096;2023-05-09T06:23:32;101938.56;;;11.41;38.29
69780;BME280;57052;55.602;38.096;2023-05-09T06:25:58;101937.13;;;11.50;38.19
69780;BME280;57052;55.602;38.096;2023-05-09T06:28:23;101942.22;;;11.58;37.46
69780;BME280;57052;55.602;38.096;2023-05-09T06:30:49;101925.94;;;11.58;37.33
69780;BME280;57052;55.602;38.096;2023-05-09T06:33:15;101922.91;;;11.67;36.68
69780;BME280;57052;55.602;38.096;2023-05-09T06:35:41;101884.91;;;11.55;36.76
69780;BME280;57052;55.602;38.096;2023-05-09T06:38:06;101926.13;;;11.87;36.74
69780;BME280;57052;55.602;38.096;2023-05-09T06:40:32;101924.69;;;11.96;36.33
69780;BME280;57052;55.602;38.096;2023-05-09T06:42:58;101924.19;;;12.10;36.09
69780;BME280;57052;55.602;38.096;2023-05-09T06:45:24;101924.78;;;12.24;36.00
69780;BME280;57052;55.602;38.096;2023-05-09T06:47:49;101919.31;;;12.36;35.56
69780;BME280;57052;55.602;38.096;2023-05-09T06:50:15;101917.06;;;12.44;35.03
69780;BME280;57052;55.602;38.096;2023-05-09T06:52:41;101912.03;;;12.53;34.57
69780;BME280;57052;55.602;38.096;2023-05-09T06:55:07;101904.69;;;12.65;34.48
69780;BME280;57052;55.602;38.096;2023-05-09T06:57:33;101905.69;;;12.75;34.45
69780;BME280;57052;55.602;38.096;2023-05-09T06:59:59;101893.88;;;12.81;34.20
69780;BME280;57052;55.602;38.096;2023-05-09T07:02:25;101899.50;;;12.92;33.74
69780;BME280;57052;55.602;38.096;2023-05-09T07:04:50;101894.06;;;12.92;33.57
69780;BME280;57052;55.602;38.096;2023-05-09T07:07:16;101892.16;;;12.92;33.36
69780;BME280;57052;55.602;38.096;2023-05-09T07:09:42;101897.34;;;12.94;33.55
69780;BME280;57052;55.602;38.096;2023-05-09T07:12:07;101886.72;;;12.92;33.62
69780;BME280;57052;55.602;38.096;2023-05-09T07:14:33;101888.94;;;12.95;33.40
69780;BME280;57052;55.602;38.096;2023-05-09T07:16:59;101900.81;;;13.06;33.33
69780;BME280;57052;55.602;38.096;2023-05-09T07:19:24;101897.38;;;13.10;33.80
69780;BME280;57052;55.602;38.096;2023-05-09T07:21:51;101896.41;;;13.16;33.62
69780;BME280;57052;55.602;38.096;2023-05-09T07:24:16;101895.44;;;13.22;33.61
69780;BME280;57052;55.602;38.096;2023-05-09T07:26:42;101892.00;;;13.27;33.10
69780;BME280;57052;55.602;38.096;2023-05-09T07:29:08;101880.44;;;13.20;33.23
69780;BME280;57052;55.602;38.096;2023-05-09T07:31:33;101892.16;;;13.37;32.91
69780;BME280;57052;55.602;38.096;2023-05-09T07:33:59;101896.00;;;13.41;33.24
69780;BME280;57052;55.602;38.096;2023-05-09T07:36:25;101894.47;;;13.45;32.73
69780;BME280;57052;55.602;38.096;2023-05-09T07:38:50;101882.00;;;13.49;33.03
69780;BME280;57052;55.602;38.096;2023-05-09T07:41:18;101881.75;;;13.50;32.77
69780;BME280;57052;55.602;38.096;2023-05-09T07:43:43;101889.50;;;13.59;32.35
69780;BME280;57052;55.602;38.096;2023-05-09T07:46:09;101887.69;;;13.64;32.84
69780;BME280;57052;55.602;38.096;2023-05-09T07:48:35;101885.38;;;13.73;32.63
69780;BME280;57052;55.602;38.096;2023-05-09T07:51:01;101876.81;;;13.86;32.25
69780;BME280;57052;55.602;38.096;2023-05-09T07:53:26;101868.56;;;13.97;31.92
69780;BME280;57052;55.602;38.096;2023-05-09T07:55:52;101866.53;;;14.09;31.67
69780;BME280;57052;55.602;38.096;2023-05-09T07:58:18;101868.00;;;14.17;31.75
69780;BME280;57052;55.602;38.096;2023-05-09T08:00:43;101864.25;;;14.23;31.75
69780;BME280;57052;55.602;38.096;2023-05-09T08:03:09;101859.22;;;14.32;31.44
69780;BME280;57052;55.602;38.096;2023-05-09T08:05:35;101850.03;;;14.38;31.15
69780;BME280;57052;55.602;38.096;2023-05-09T08:08:01;101846.78;;;14.41;31.30
69780;BME280;57052;55.602;38.096;2023-05-09T08:10:26;101850.25;;;14.58;31.16
69780;BME280;57052;55.602;38.096;2023-05-09T08:12:55;101845.72;;;14.68;31.16
69780;BME280;57052;55.602;38.096;2023-05-09T08:15:21;101842.06;;;14.85;30.72
69780;BME280;57052;55.602;38.096;2023-05-09T08:17:47;101848.19;;;14.97;30.95
69780;BME280;57052;55.602;38.096;2023-05-09T08:20:13;101838.19;;;15.07;30.47
69780;BME280;57052;55.602;38.096;2023-05-09T08:22:39;101841.28;;;15.21;30.31
69780;BME280;57052;55.602;38.096;2023-05-09T08:25:06;101832.41;;;15.35;29.82
69780;BME280;57052;55.602;38.096;2023-05-09T08:27:33;101829.22;;;15.49;29.81
69780;BME280;57052;55.602;38.096;2023-05-09T08:29:59;101823.28;;;15.57;29.74
69780;BME280;57052;55.602;38.096;2023-05-09T08:32:24;101828.84;;;15.72;29.66
69780;BME280;57052;55.602;38.096;2023-05-09T08:34:50;101827.00;;;15.82;28.96
69780;BME280;57052;55.602;38.096;2023-05-09T08:37:16;101810.88;;;15.86;29.23
69780;BME280;57052;55.602;38.096;2023-05-09T08:39:42;101814.50;;;16.01;28.43
69780;BME280;57052;55.602;38.096;2023-05-09T08:42:08;101817.50;;;15.95;27.61
69780;BME280;57052;55.602;38.096;2023-05-09T08:44:34;101813.13;;;15.99;27.39
69780;BME280;57052;55.602;38.096;2023-05-09T08:47:02;101812.09;;;16.10;26.80
69780;BME280;57052;55.602;38.096;2023-05-09T08:49:29;101808.03;;;16.18;27.30
69780;BME280;57052;55.602;38.096;2023-05-09T08:51:55;101806.69;;;16.25;27.11
69780;BME280;57052;55.602;38.096;2023-05-09T08:54:22;101804.22;;;16.29;27.54
69780;BME280;57052;55.602;38.096;2023-05-09T08:56:49;101806.97;;;16.34;27.58
69780;BME280;57052;55.602;38.096;2023-05-09T08:59:15;101796.03;;;16.34;27.55
69780;BME280;57052;55.602;38.096;2023-05-09T09:01:42;101810.25;;;16.41;27.27
69780;BME280;57052;55.602;38.096;2023-05-09T09:04:08;101798.78;;;16.39;27.28
69780;BME280;57052;55.602;38.096;2023-05-09T09:06:37;101802.34;;;16.39;27.40
69780;BME280;57052;55.602;38.096;2023-05-09T09:09:05;101796.56;;;16.36;26.89
69780;BME280;57052;55.602;38.096;2023-05-09T09:11:33;101785.66;;;16.26;27.38
69780;BME280;57052;55.602;38.096;2023-05-09T09:14:02;101796.56;;;16.26;27.20
69780;BME280;57052;55.602;38.096;2023-05-09T09:16:31;101780.69;;;16.18;27.89
69780;BME280;57052;55.602;38.096;2023-05-09T09:18:57;101782.88;;;16.16;27.54
69780;BME280;57052;55.602;38.096;2023-05-09T09:21:24;101787.50;;;16.05;27.27
69780;BME280;57052;55.602;38.096;2023-05-09T09:23:51;101773.00;;;16.04;26.13
69780;BME280;57052;55.602;38.096;2023-05-09T09:26:18;101771.13;;;16.10;27.48
69780;BME280;57052;55.602;38.096;2023-05-09T09:28:44;101775.50;;;16.21;27.02
69780;BME280;57052;55.602;38.096;2023-05-09T09:33:44;101776.00;;;15.98;26.54
69780;BME280;57052;55.602;38.096;2023-05-09T09:36:10;101765.88;;;15.98;26.79
69780;BME280;57052;55.602;38.096;2023-05-09T09:38:39;101755.78;;;16.04;25.92
69780;BME280;57052;55.602;38.096;2023-05-09T09:41:05;101761.28;;;16.14;26.63
69780;BME280;57052;55.602;38.096;2023-05-09T09:43:31;101743.81;;;16.20;26.31
69780;BME280;57052;55.602;38.096;2023-05-09T09:46:01;101764.88;;;16.35;25.33
69780;BME280;57052;55.602;38.096;2023-05-09T09:48:30;101762.69;;;16.27;25.10
69780;BME280;57052;55.602;38.096;2023-05-09T09:51:03;101747.38;;;16.16;24.42
69780;BME280;57052;55.602;38.096;2023-05-09T09:53:38;101753.13;;;16.39;26.03
69780;BME280;57052;55.602;38.096;2023-05-09T09:56:04;101753.50;;;16.68;26.27
69780;BME280;57052;55.602;38.096;2023-05-09T09:58:30;101760.31;;;16.96;26.20
69780;BME280;57052;55.602;38.096;2023-05-09T10:01:08;101749.63;;;17.04;22.85
69780;BME280;57052;55.602;38.096;2023-05-09T10:03:44;101741.09;;;17.31;24.23
69780;BME280;57052;55.602;38.096;2023-05-09T10:06:13;101744.34;;;17.48;24.63
69780;BME280;57052;55.602;38.096;2023-05-09T10:08:40;101744.88;;;17.65;25.09
69780;BME280;57052;55.602;38.096;2023-05-09T10:11:06;101743.44;;;17.78;24.72
69780;BME280;57052;55.602;38.096;2023-05-09T10:13:35;101742.56;;;17.92;22.81
69780;BME280;57052;55.602;38.096;2023-05-09T10:16:02;101737.81;;;18.08;24.41
69780;BME280;57052;55.602;38.096;2023-05-09T10:18:29;101742.94;;;18.20;24.10
69780;BME280;57052;55.602;38.096;2023-05-09T10:20:57;101736.88;;;18.28;24.22
69780;BME280;57052;55.602;38.096;2023-05-09T10:23:37;101731.53;;;18.46;22.45
69780;BME280;57052;55.602;38.096;2023-05-09T10:28:44;101728.38;;;18.68;23.47
69780;BME280;57052;55.602;38.096;2023-05-09T10:31:18;101729.13;;;18.79;23.46
69780;BME280;57052;55.602;38.096;2023-05-09T10:33:48;101720.88;;;18.79;23.99
69780;BME280;57052;55.602;38.096;2023-05-09T10:36:16;101709.56;;;18.85;24.12
69780;BME280;57052;55.602;38.096;2023-05-09T10:38:42;101724.81;;;18.96;24.34
69780;BME280;57052;55.602;38.096;2023-05-09T10:41:12;101712.22;;;18.95;22.87
69780;BME280;57052;55.602;38.096;2023-05-09T10:43:39;101705.06;;;18.94;23.96
69780;BME280;57052;55.602;38.096;2023-05-09T10:46:07;101707.78;;;18.99;23.69
69780;BME280;57052;55.602;38.096;2023-05-09T10:48:33;101702.06;;;18.96;23.22
69780;BME280;57052;55.602;38.096;2023-05-09T10:51:01;101703.78;;;18.87;22.78
69780;BME280;57052;55.602;38.096;2023-05-09T10:53:41;101700.34;;;18.76;20.83
69780;BME280;57052;55.602;38.096;2023-05-09T10:56:29;101702.03;;;18.67;21.03
69780;BME280;57052;55.602;38.096;2023-05-09T10:59:00;101694.31;;;18.35;23.07
69780;BME280;57052;55.602;38.096;2023-05-09T11:04:00;101681.78;;;18.24;23.03
69780;BME280;57052;55.602;38.096;2023-05-09T11:09:35;101675.91;;;18.41;21.00
69780;BME280;57052;55.602;38.096;2023-05-09T11:12:13;101673.88;;;18.56;21.42
69780;BME280;57052;55.602;38.096;2023-05-09T11:14:44;101675.72;;;18.66;21.60
69780;BME280;57052;55.602;38.096;2023-05-09T11:17:12;101675.13;;;18.69;22.27
69780;BME280;57052;55.602;38.096;2023-05-09T11:22:22;101668.91;;;18.64;21.12
69780;BME280;57052;55.602;38.096;2023-05-09T11:25:06;101664.34;;;18.44;21.15
69780;BME280;57052;55.602;38.096;2023-05-09T11:27:45;101660.59;;;18.35;20.47
69780;BME280;57052;55.602;38.096;2023-05-09T11:30:13;101663.91;;;18.32;22.24
69780;BME280;57052;55.602;38.096;2023-05-09T11:32:50;101663.28;;;18.40;22.45
69780;BME280;57052;55.602;38.096;2023-05-09T11:35:18;101643.00;;;18.41;22.32
69780;BME280;57052;55.602;38.096;2023-05-09T11:40:26;101655.59;;;18.42;22.31
69780;BME280;57052;55.602;38.096;2023-05-09T11:42:54;101641.44;;;18.30;22.14
69780;BME280;57052;55.602;38.096;2023-05-09T11:45:21;101648.53;;;18.36;22.32
69780;BME280;57052;55.602;38.096;2023-05-09T11:47:49;101647.19;;;18.33;22.55
69780;BME280;57052;55.602;38.096;2023-05-09T11:50:17;101635.97;;;18.30;22.29
69780;BME280;57052;55.602;38.096;2023-05-09T11:52:44;101632.97;;;18.26;22.62
69780;BME280;57052;55.602;38.096;2023-05-09T11:55:11;101640.44;;;18.21;22.49
69780;BME280;57052;55.602;38.096;2023-05-09T11:57:43;101625.97;;;18.10;22.38
69780;BME280;57052;55.602;38.096;2023-05-09T12:00:10;101636.09;;;18.15;22.49
69780;BME280;57052;55.602;38.096;2023-05-09T12:02:37;101620.72;;;18.14;22.69
69780;BME280;57052;55.602;38.096;2023-05-09T12:05:10;101627.28;;;18.18;21.42
69780;BME280;57052;55.602;38.096;2023-05-09T12:07:37;101633.84;;;18.22;22.59
69780;BME280;57052;55.602;38.096;2023-05-09T12:10:08;101627.25;;;18.23;21.74
69780;BME280;57052;55.602;38.096;2023-05-09T12:12:35;101620.38;;;18.25;22.62
69780;BME280;57052;55.602;38.096;2023-05-09T12:15:02;101621.59;;;18.48;22.51
69780;BME280;57052;55.602;38.096;2023-05-09T12:17:31;101630.97;;;18.71;22.44
69780;BME280;57052;55.602;38.096;2023-05-09T12:19:58;101620.72;;;18.81;22.06
69780;BME280;57052;55.602;38.096;2023-05-09T12:22:24;101623.94;;;18.88;22.12
69780;BME280;57052;55.602;38.096;2023-05-09T12:24:50;101625.22;;;18.96;22.06
69780;BME280;57052;55.602;38.096;2023-05-09T12:27:16;101619.50;;;19.16;21.58
69780;BME280;57052;55.602;38.096;2023-05-09T12:29:43;101611.94;;;19.27;21.54
69780;BME280;57052;55.602;38.096;2023-05-09T12:32:13;101600.31;;;19.35;21.21
69780;BME280;57052;55.602;38.096;2023-05-09T12:34:43;101601.84;;;19.64;21.34
69780;BME280;57052;55.602;38.096;2023-05-09T12:37:17;101595.91;;;19.76;21.21
69780;BME280;57052;55.602;38.096;2023-05-09T12:39:58;101587.81;;;19.84;21.01
69780;BME280;57052;55.602;38.096;2023-05-09T12:42:27;101594.91;;;20.04;20.10
69780;BME280;57052;55.602;38.096;2023-05-09T12:44:54;101591.13;;;20.19;20.54
69780;BME280;57052;55.602;38.096;2023-05-09T12:47:19;101576.50;;;20.23;20.87
69780;BME280;57052;55.602;38.096;2023-05-09T12:49:48;101577.13;;;20.34;20.55
69780;BME280;57052;55.602;38.096;2023-05-09T12:52:19;101568.34;;;20.32;19.19
69780;BME280;57052;55.602;38.096;2023-05-09T12:54:46;101563.75;;;20.27;20.33
69780;BME280;57052;55.602;38.096;2023-05-09T12:57:22;101563.09;;;20.17;18.40
69780;BME280;57052;55.602;38.096;2023-05-09T12:59:49;101560.88;;;20.19;20.25
69780;BME280;57052;55.602;38.096;2023-05-09T13:02:15;101551.56;;;20.15;20.17
69780;BME280;57052;55.602;38.096;2023-05-09T13:04:42;101552.63;;;20.19;20.16
69780;BME280;57052;55.602;38.096;2023-05-09T13:07:08;101549.66;;;20.15;19.96
69780;BME280;57052;55.602;38.096;2023-05-09T13:09:35;101551.66;;;20.10;19.66
69780;BME280;57052;55.602;38.096;2023-05-09T13:12:02;101548.81;;;20.15;19.59